sensor_id;sensor_type;location;lat;lon;timestamp;temperature;humidity
68766;DHT22;55756;45.582;11.484;2023-02-20T00:01:14;13.70;55.10
68766;DHT22;55756;45.582;11.484;2023-02-20T00:03:40;13.70;55.20
68766;DHT22;55756;45.582;11.484;2023-02-20T00:06:06;13.70;55.20
68766;DHT22;55756;45.582;11.484;2023-02-20T00:08:31;13.70;55.30
68766;DHT22;55756;45.582;11.484;2023-02-20T00:10:57;13.70;55.30
68766;DHT22;55756;45.582;11.484;2023-02-20T00:13:23;13.70;55.30
68766;DHT22;55756;45.582;11.484;2023-02-20T00:15:48;13.80;55.30
68766;DHT22;55756;45.582;11.484;2023-02-20T00:18:14;13.70;55.20
68766;DHT22;55756;45.582;11.484;2023-02-20T00:20:40;13.70;55.10
68766;DHT22;55756;45.582;11.484;2023-02-20T00:25:42;13.70;55.10
68766;DHT22;55756;45.582;11.484;2023-02-20T00:28:07;13.70;55.20
68766;DHT22;55756;45.582;11.484;2023-02-20T00:30:33;13.70;55.20
68766;DHT22;55756;45.582;11.484;2023-02-20T00:32:59;13.70;55.10
68766;DHT22;55756;45.582;11.484;2023-02-20T00:35:26;13.70;55.20
68766;DHT22;55756;45.582;11.484;2023-02-20T00:37:53;13.70;55.20
68766;DHT22;55756;45.582;11.484;2023-02-20T00:40:22;13.70;55.30
68766;DHT22;55756;45.582;11.484;2023-02-20T00:42:49;13.70;55.30
68766;DHT22;55756;45.582;11.484;2023-02-20T00:45:16;13.70;55.30
68766;DHT22;55756;45.582;11.484;2023-02-20T00:47:42;13.70;55.20
68766;DHT22;55756;45.582;11.484;2023-02-20T00:50:09;13.70;55.40
68766;DHT22;55756;45.582;11.484;2023-02-20T00:52:38;13.70;55.50
68766;DHT22;55756;45.582;11.484;2023-02-20T00:55:04;13.70;55.60
68766;DHT22;55756;45.582;11.484;2023-02-20T00:57:30;13.70;55.70
68766;DHT22;55756;45.582;11.484;2023-02-20T00:59:56;13.70;55.80
68766;DHT22;55756;45.582;11.484;2023-02-20T01:02:22;13.70;55.80
68766;DHT22;55756;45.582;11.484;2023-02-20T01:04:48;13.70;55.80
68766;DHT22;55756;45.582;11.484;2023-02-20T01:07:14;13.70;55.80
68766;DHT22;55756;45.582;11.484;2023-02-20T01:09:40;13.80;55.70
68766;DHT22;55756;45.582;11.484;2023-02-20T01:12:06;13.80;55.60
68766;DHT22;55756;45.582;11.484;2023-02-20T01:14:32;13.80;55.60
68766;DHT22;55756;45.582;11.484;2023-02-20T01:17:00;13.80;55.60
68766;DHT22;55756;45.582;11.484;2023-02-20T01:19:26;13.80;55.60
68766;DHT22;55756;45.582;11.484;2023-02-20T01:21:52;13.70;55.60
68766;DHT22;55756;45.582;11.484;2023-02-20T01:24:18;13.70;55.50
68766;DHT22;55756;45.582;11.484;2023-02-20T01:26:47;13.70;55.60
68766;DHT22;55756;45.582;11.484;2023-02-20T01:29:14;13.80;55.50
68766;DHT22;55756;45.582;11.484;2023-02-20T01:31:46;13.80;55.40
68766;DHT22;55756;45.582;11.484;2023-02-20T01:34:14;13.90;55.40
68766;DHT22;55756;45.582;11.484;2023-02-20T01:36:48;13.80;55.50
68766;DHT22;55756;45.582;11.484;2023-02-20T01:39:19;13.80;55.50
68766;DHT22;55756;45.582;11.484;2023-02-20T01:41:48;13.80;55.40
68766;DHT22;55756;45.582;11.484;2023-02-20T01:44:16;13.70;55.30
68766;DHT22;55756;45.582;11.484;2023-02-20T01:46:48;13.70;55.40
68766;DHT22;55756;45.582;11.484;2023-02-20T01:49:20;13.70;55.50
68766;DHT22;55756;45.582;11.484;2023-02-20T01:51:54;13.70;55.50
68766;DHT22;55756;45.582;11.484;2023-02-20T01:54:22;13.70;55.50
68766;DHT22;55756;45.582;11.484;2023-02-20T01:56:50;13.70;55.40
68766;DHT22;55756;45.582;11.484;2023-02-20T01:59:19;13.70;55.30
68766;DHT22;55756;45.582;11.484;2023-02-20T02:01:46;13.70;55.40
68766;DHT22;55756;45.582;11.484;2023-02-20T02:04:13;13.60;55.60
68766;DHT22;55756;45.582;11.484;2023-02-20T02:06:43;13.60;55.70
68766;DHT22;55756;45.582;11.484;2023-02-20T02:10:05;13.60;55.80
68766;DHT22;55756;45.582;11.484;2023-02-20T02:12:27;13.60;55.90
68766;DHT22;55756;45.582;11.484;2023-02-20T02:14:54;13.60;55.60
68766;DHT22;55756;45.582;11.484;2023-02-20T02:24:19;13.60;55.50
68766;DHT22;55756;45.582;11.484;2023-02-20T02:35:57;13.60;55.50
68766;DHT22;55756;45.582;11.484;2023-02-20T02:50:03;13.60;55.10
68766;DHT22;55756;45.582;11.484;2023-02-20T02:52:32;13.60;55.20
68766;DHT22;55756;45.582;11.484;2023-02-20T02:55:22;13.60;55.30
68766;DHT22;55756;45.582;11.484;2023-02-20T02:57:48;13.60;55.60
68766;DHT22;55756;45.582;11.484;2023-02-20T03:00:17;13.60;55.80
68766;DHT22;55756;45.582;11.484;2023-02-20T03:02:54;13.60;55.90
68766;DHT22;55756;45.582;11.484;2023-02-20T03:05:24;13.60;56.00
68766;DHT22;55756;45.582;11.484;2023-02-20T03:07:55;13.70;55.90
68766;DHT22;55756;45.582;11.484;2023-02-20T03:10:24;13.70;56.00
68766;DHT22;55756;45.582;11.484;2023-02-20T03:13:01;13.70;56.00
68766;DHT22;55756;45.582;11.484;2023-02-20T03:15:41;13.70;56.10
68766;DHT22;55756;45.582;11.484;2023-02-20T03:20:58;13.60;56.70
68766;DHT22;55756;45.582;11.484;2023-02-20T03:23:30;13.60;56.70
68766;DHT22;55756;45.582;11.484;2023-02-20T03:26:00;13.60;56.60
68766;DHT22;55756;45.582;11.484;2023-02-20T03:28:31;13.60;56.60
68766;DHT22;55756;45.582;11.484;2023-02-20T03:31:20;13.60;56.50
68766;DHT22;55756;45.582;11.484;2023-02-20T03:34:01;13.60;56.60
68766;DHT22;55756;45.582;11.484;2023-02-20T03:37:05;13.50;56.70
68766;DHT22;55756;45.582;11.484;2023-02-20T03:39:57;13.60;57.00
68766;DHT22;55756;45.582;11.484;2023-02-20T03:42:46;13.60;57.00
68766;DHT22;55756;45.582;11.484;2023-02-20T03:45:36;13.60;57.10
68766;DHT22;55756;45.582;11.484;2023-02-20T03:48:13;13.70;56.90
68766;DHT22;55756;45.582;11.484;2023-02-20T03:50:40;13.80;56.70
68766;DHT22;55756;45.582;11.484;2023-02-20T03:53:28;13.80;56.70
68766;DHT22;55756;45.582;11.484;2023-02-20T03:55:57;13.80;56.50
68766;DHT22;55756;45.582;11.484;2023-02-20T03:58:26;13.80;56.30
68766;DHT22;55756;45.582;11.484;2023-02-20T04:00:54;13.80;56.10
68766;DHT22;55756;45.582;11.484;2023-02-20T04:03:26;13.70;56.30
68766;DHT22;55756;45.582;11.484;2023-02-20T04:05:55;13.80;56.00
68766;DHT22;55756;45.582;11.484;2023-02-20T04:08:38;13.70;55.80
68766;DHT22;55756;45.582;11.484;2023-02-20T04:11:15;13.70;56.00
68766;DHT22;55756;45.582;11.484;2023-02-20T04:13:43;13.70;56.30
68766;DHT22;55756;45.582;11.484;2023-02-20T04:16:10;13.70;56.40
68766;DHT22;55756;45.582;11.484;2023-02-20T04:18:37;13.60;56.90
68766;DHT22;55756;45.582;11.484;2023-02-20T04:21:09;13.70;57.00
68766;DHT22;55756;45.582;11.484;2023-02-20T04:23:44;13.70;57.10
68766;DHT22;55756;45.582;11.484;2023-02-20T04:26:16;13.70;57.40
68766;DHT22;55756;45.582;11.484;2023-02-20T04:28:46;13.60;57.50
68766;DHT22;55756;45.582;11.484;2023-02-20T04:31:16;13.60;57.60
68766;DHT22;55756;45.582;11.484;2023-02-20T04:33:42;13.60;57.60
68766;DHT22;55756;45.582;11.484;2023-02-20T04:36:20;13.60;57.70
68766;DHT22;55756;45.582;11.484;2023-02-20T04:38:48;13.60;57.80
68766;DHT22;55756;45.582;11.484;2023-02-20T04:41:17;13.60;57.60
68766;DHT22;55756;45.582;11.484;2023-02-20T04:43:43;13.60;57.60
68766;DHT22;55756;45.582;11.484;2023-02-20T04:46:10;13.60;57.60
68766;DHT22;55756;45.582;11.484;2023-02-20T04:48:35;13.60;57.70
68766;DHT22;55756;45.582;11.484;2023-02-20T04:51:02;13.60;57.80
68766;DHT22;55756;45.582;11.484;2023-02-20T04:53:28;13.60;57.50
68766;DHT22;55756;45.582;11.484;2023-02-20T04:55:53;13.70;57.50
68766;DHT22;55756;45.582;11.484;2023-02-20T04:58:23;13.70;57.40
68766;DHT22;55756;45.582;11.484;2023-02-20T05:00:53;13.80;57.10
68766;DHT22;55756;45.582;11.484;2023-02-20T05:03:19;13.80;57.20
68766;DHT22;55756;45.582;11.484;2023-02-20T05:05:44;13.70;57.30
68766;DHT22;55756;45.582;11.484;2023-02-20T05:08:13;13.70;57.40
68766;DHT22;55756;45.582;11.484;2023-02-20T05:10:38;13.70;57.60
68766;DHT22;55756;45.582;11.484;2023-02-20T05:13:04;13.80;57.50
68766;DHT22;55756;45.582;11.484;2023-02-20T05:15:30;13.80;57.40
68766;DHT22;55756;45.582;11.484;2023-02-20T05:17:56;13.80;57.50
68766;DHT22;55756;45.582;11.484;2023-02-20T05:20:22;13.80;57.40
68766;DHT22;55756;45.582;11.484;2023-02-20T05:23:11;13.80;57.50
68766;DHT22;55756;45.582;11.484;2023-02-20T05:25:36;13.80;57.40
68766;DHT22;55756;45.582;11.484;2023-02-20T05:28:02;13.80;57.30
68766;DHT22;55756;45.582;11.484;2023-02-20T05:30:28;13.80;57.30
68766;DHT22;55756;45.582;11.484;2023-02-20T05:32:54;13.80;57.30
68766;DHT22;55756;45.582;11.484;2023-02-20T05:35:19;13.90;56.90
68766;DHT22;55756;45.582;11.484;2023-02-20T05:37:45;13.90;56.70
68766;DHT22;55756;45.582;11.484;2023-02-20T05:40:11;13.90;56.70
68766;DHT22;55756;45.582;11.484;2023-02-20T05:42:37;13.80;57.00
68766;DHT22;55756;45.582;11.484;2023-02-20T05:45:03;13.80;57.20
68766;DHT22;55756;45.582;11.484;2023-02-20T05:47:29;13.90;57.00
68766;DHT22;55756;45.582;11.484;2023-02-20T05:49:54;13.90;56.90
68766;DHT22;55756;45.582;11.484;2023-02-20T05:52:20;13.90;56.90
68766;DHT22;55756;45.582;11.484;2023-02-20T05:54:46;13.90;56.90
68766;DHT22;55756;45.582;11.484;2023-02-20T05:57:12;13.80;57.40
68766;DHT22;55756;45.582;11.484;2023-02-20T05:59:38;13.80;57.40
68766;DHT22;55756;45.582;11.484;2023-02-20T06:02:04;13.80;57.40
68766;DHT22;55756;45.582;11.484;2023-02-20T06:04:29;13.80;57.60
68766;DHT22;55756;45.582;11.484;2023-02-20T06:06:55;13.80;57.70
68766;DHT22;55756;45.582;11.484;2023-02-20T06:09:21;13.70;57.70
68766;DHT22;55756;45.582;11.484;2023-02-20T06:11:52;13.70;57.70
68766;DHT22;55756;45.582;11.484;2023-02-20T06:14:19;13.70;57.90
68766;DHT22;55756;45.582;11.484;2023-02-20T06:16:46;13.70;57.90
68766;DHT22;55756;45.582;11.484;2023-02-20T06:19:21;13.70;58.00
68766;DHT22;55756;45.582;11.484;2023-02-20T06:21:49;13.70;57.90
68766;DHT22;55756;45.582;11.484;2023-02-20T06:24:16;13.70;57.90
68766;DHT22;55756;45.582;11.484;2023-02-20T06:26:42;13.80;57.60
68766;DHT22;55756;45.582;11.484;2023-02-20T06:29:09;13.80;57.60
68766;DHT22;55756;45.582;11.484;2023-02-20T06:31:35;13.70;58.10
68766;DHT22;55756;45.582;11.484;2023-02-20T06:34:01;13.70;58.30
68766;DHT22;55756;45.582;11.484;2023-02-20T06:36:31;13.70;58.30
68766;DHT22;55756;45.582;11.484;2023-02-20T06:39:00;13.80;58.10
68766;DHT22;55756;45.582;11.484;2023-02-20T06:41:26;13.80;57.90
68766;DHT22;55756;45.582;11.484;2023-02-20T06:43:52;13.80;58.20
68766;DHT22;55756;45.582;11.484;2023-02-20T06:46:18;13.80;58.20
68766;DHT22;55756;45.582;11.484;2023-02-20T06:48:49;13.80;58.00
68766;DHT22;55756;45.582;11.484;2023-02-20T06:51:18;13.80;57.90
68766;DHT22;55756;45.582;11.484;2023-02-20T06:53:44;13.70;57.80
68766;DHT22;55756;45.582;11.484;2023-02-20T06:56:13;13.80;57.70
68766;DHT22;55756;45.582;11.484;2023-02-20T06:58:40;13.80;57.80
68766;DHT22;55756;45.582;11.484;2023-02-20T07:01:07;13.80;58.00
68766;DHT22;55756;45.582;11.484;2023-02-20T07:03:35;13.70;58.20
68766;DHT22;55756;45.582;11.484;2023-02-20T07:06:02;13.70;58.30
68766;DHT22;55756;45.582;11.484;2023-02-20T07:08:27;13.70;58.30
68766;DHT22;55756;45.582;11.484;2023-02-20T07:10:53;13.80;58.20
68766;DHT22;55756;45.582;11.484;2023-02-20T07:13:20;13.90;58.10
68766;DHT22;55756;45.582;11.484;2023-02-20T07:15:47;13.90;58.20
68766;DHT22;55756;45.582;11.484;2023-02-20T07:18:16;13.90;58.00
68766;DHT22;55756;45.582;11.484;2023-02-20T07:20:45;13.90;58.10
68766;DHT22;55756;45.582;11.484;2023-02-20T07:23:11;14.00;58.10
68766;DHT22;55756;45.582;11.484;2023-02-20T07:25:37;13.90;58.00
68766;DHT22;55756;45.582;11.484;2023-02-20T07:28:03;13.90;58.20
68766;DHT22;55756;45.582;11.484;2023-02-20T07:30:31;14.00;58.00
68766;DHT22;55756;45.582;11.484;2023-02-20T07:32:57;14.00;58.00
68766;DHT22;55756;45.582;11.484;2023-02-20T07:35:23;14.00;58.10
68766;DHT22;55756;45.582;11.484;2023-02-20T07:37:48;14.00;58.20
68766;DHT22;55756;45.582;11.484;2023-02-20T07:40:14;14.10;58.30
68766;DHT22;55756;45.582;11.484;2023-02-20T07:42:40;14.10;58.30
68766;DHT22;55756;45.582;11.484;2023-02-20T07:45:15;14.00;58.60
68766;DHT22;55756;45.582;11.484;2023-02-20T07:47:42;14.10;58.40
68766;DHT22;55756;45.582;11.484;2023-02-20T07:50:08;14.10;58.60
68766;DHT22;55756;45.582;11.484;2023-02-20T07:52:34;14.10;58.70
68766;DHT22;55756;45.582;11.484;2023-02-20T07:55:00;14.20;58.50
68766;DHT22;55756;45.582;11.484;2023-02-20T07:57:25;14.20;58.10
68766;DHT22;55756;45.582;11.484;2023-02-20T07:59:51;14.20;57.90
68766;DHT22;55756;45.582;11.484;2023-02-20T08:02:17;14.20;58.00
68766;DHT22;55756;45.582;11.484;2023-02-20T08:04:43;14.20;57.90
68766;DHT22;55756;45.582;11.484;2023-02-20T08:07:08;14.20;57.70
68766;DHT22;55756;45.582;11.484;2023-02-20T08:09:34;14.30;57.50
68766;DHT22;55756;45.582;11.484;2023-02-20T08:12:00;14.30;57.40
68766;DHT22;55756;45.582;11.484;2023-02-20T08:14:25;14.30;57.30
68766;DHT22;55756;45.582;11.484;2023-02-20T08:16:55;14.40;57.10
68766;DHT22;55756;45.582;11.484;2023-02-20T08:19:21;14.40;56.80
68766;DHT22;55756;45.582;11.484;2023-02-20T08:21:47;14.40;56.10
68766;DHT22;55756;45.582;11.484;2023-02-20T08:24:12;14.50;56.00
68766;DHT22;55756;45.582;11.484;2023-02-20T08:26:43;14.50;55.80
68766;DHT22;55756;45.582;11.484;2023-02-20T08:29:21;14.50;55.60
68766;DHT22;55756;45.582;11.484;2023-02-20T08:31:46;14.60;55.00
68766;DHT22;55756;45.582;11.484;2023-02-20T08:34:12;14.70;54.70
68766;DHT22;55756;45.582;11.484;2023-02-20T08:36:39;14.70;54.40
68766;DHT22;55756;45.582;11.484;2023-02-20T08:39:05;14.80;54.30
68766;DHT22;55756;45.582;11.484;2023-02-20T08:41:31;14.80;54.00
68766;DHT22;55756;45.582;11.484;2023-02-20T08:43:57;14.90;53.30
68766;DHT22;55756;45.582;11.484;2023-02-20T08:46:23;14.90;53.40
68766;DHT22;55756;45.582;11.484;2023-02-20T08:48:49;15.00;53.40
68766;DHT22;55756;45.582;11.484;2023-02-20T08:51:19;15.10;53.60
68766;DHT22;55756;45.582;11.484;2023-02-20T08:53:48;15.10;53.20
68766;DHT22;55756;45.582;11.484;2023-02-20T08:56:17;15.20;53.10
68766;DHT22;55756;45.582;11.484;2023-02-20T08:58:43;15.10;52.90
68766;DHT22;55756;45.582;11.484;2023-02-20T09:01:09;15.20;52.80
68766;DHT22;55756;45.582;11.484;2023-02-20T09:03:34;15.20;52.70
68766;DHT22;55756;45.582;11.484;2023-02-20T09:06:04;15.30;52.50
68766;DHT22;55756;45.582;11.484;2023-02-20T09:08:29;15.40;52.60
68766;DHT22;55756;45.582;11.484;2023-02-20T09:10:55;15.40;52.60
68766;DHT22;55756;45.582;11.484;2023-02-20T09:13:21;15.50;52.80
68766;DHT22;55756;45.582;11.484;2023-02-20T09:15:47;15.60;52.40
68766;DHT22;55756;45.582;11.484;2023-02-20T09:18:13;15.70;52.00
68766;DHT22;55756;45.582;11.484;2023-02-20T09:20:40;15.70;51.90
68766;DHT22;55756;45.582;11.484;2023-02-20T09:23:06;15.70;51.80
68766;DHT22;55756;45.582;11.484;2023-02-20T09:25:32;15.70;51.90
68766;DHT22;55756;45.582;11.484;2023-02-20T09:27:58;15.70;52.20
68766;DHT22;55756;45.582;11.484;2023-02-20T09:30:24;15.80;52.10
68766;DHT22;55756;45.582;11.484;2023-02-20T09:32:50;15.90;51.80
68766;DHT22;55756;45.582;11.484;2023-02-20T09:35:19;15.80;51.60
68766;DHT22;55756;45.582;11.484;2023-02-20T09:37:45;15.90;51.30
68766;DHT22;55756;45.582;11.484;2023-02-20T09:40:13;15.90;51.60
68766;DHT22;55756;45.582;11.484;2023-02-20T09:45:27;16.00;52.20
68766;DHT22;55756;45.582;11.484;2023-02-20T09:50:35;16.00;52.20
68766;DHT22;55756;45.582;11.484;2023-02-20T09:53:28;16.10;52.20
68766;DHT22;55756;45.582;11.484;2023-02-20T09:55:56;16.10;51.90
68766;DHT22;55756;45.582;11.484;2023-02-20T10:00:49;16.20;52.30
68766;DHT22;55756;45.582;11.484;2023-02-20T10:03:45;16.20;52.60
68766;DHT22;55756;45.582;11.484;2023-02-20T10:06:18;16.30;52.40
68766;DHT22;55756;45.582;11.484;2023-02-20T10:08:49;16.30;52.40
68766;DHT22;55756;45.582;11.484;2023-02-20T10:27:44;16.60;50.10
68766;DHT22;55756;45.582;11.484;2023-02-20T10:30:11;16.60;50.30
68766;DHT22;55756;45.582;11.484;2023-02-20T10:32:48;16.70;49.90
68766;DHT22;55756;45.582;11.484;2023-02-20T10:35:24;16.70;49.70
68766;DHT22;55756;45.582;11.484;2023-02-20T10:38:00;16.80;49.50
68766;DHT22;55756;45.582;11.484;2023-02-20T10:40:33;16.80;49.30
68766;DHT22;55756;45.582;11.484;2023-02-20T10:48:38;17.00;48.40
68766;DHT22;55756;45.582;11.484;2023-02-20T10:51:26;17.00;48.80
68766;DHT22;55756;45.582;11.484;2023-02-20T10:54:06;17.10;48.60
68766;DHT22;55756;45.582;11.484;2023-02-20T10:56:47;17.10;48.60
68766;DHT22;55756;45.582;11.484;2023-02-20T10:59:30;17.20;48.00
68766;DHT22;55756;45.582;11.484;2023-02-20T11:01:59;17.20;48.30
68766;DHT22;55756;45.582;11.484;2023-02-20T11:04:29;17.20;48.50
68766;DHT22;55756;45.582;11.484;2023-02-20T11:06:59;17.20;48.70
68766;DHT22;55756;45.582;11.484;2023-02-20T11:09:26;17.20;49.00
68766;DHT22;55756;45.582;11.484;2023-02-20T11:11:53;17.20;48.80
68766;DHT22;55756;45.582;11.484;2023-02-20T11:17:08;17.30;47.90
68766;DHT22;55756;45.582;11.484;2023-02-20T11:19:51;17.30;47.70
68766;DHT22;55756;45.582;11.484;2023-02-20T11:25:30;17.30;48.20
68766;DHT22;55756;45.582;11.484;2023-02-20T11:28:18;17.30;47.60
68766;DHT22;55756;45.582;11.484;2023-02-20T11:30:48;17.30;47.80
68766;DHT22;55756;45.582;11.484;2023-02-20T11:33:20;17.30;48.20
68766;DHT22;55756;45.582;11.484;2023-02-20T11:35:49;17.30;48.20
68766;DHT22;55756;45.582;11.484;2023-02-20T11:43:43;17.50;47.50
68766;DHT22;55756;45.582;11.484;2023-02-20T11:51:44;17.50;47.20
68766;DHT22;55756;45.582;11.484;2023-02-20T11:54:22;17.50;46.90
68766;DHT22;55756;45.582;11.484;2023-02-20T11:56:56;17.50;46.90
68766;DHT22;55756;45.582;11.484;2023-02-20T11:59:39;17.50;47.20
68766;DHT22;55756;45.582;11.484;2023-02-20T12:07:55;17.70;47.10
68766;DHT22;55756;45.582;11.484;2023-02-20T12:12:50;17.70;46.80
68766;DHT22;55756;45.582;11.484;2023-02-20T12:15:18;17.60;46.70
68766;DHT22;55756;45.582;11.484;2023-02-20T12:21:09;17.60;46.00
68766;DHT22;55756;45.582;11.484;2023-02-20T12:26:39;17.60;46.40
68766;DHT22;55756;45.582;11.484;2023-02-20T12:29:23;17.60;46.50
68766;DHT22;55756;45.582;11.484;2023-02-20T12:40:34;17.60;45.70
68766;DHT22;55756;45.582;11.484;2023-02-20T12:46:13;17.70;46.00
68766;DHT22;55756;45.582;11.484;2023-02-20T12:51:52;17.60;46.50
68766;DHT22;55756;45.582;11.484;2023-02-20T13:02:47;17.80;45.30
68766;DHT22;55756;45.582;11.484;2023-02-20T13:05:15;17.80;45.40
68766;DHT22;55756;45.582;11.484;2023-02-20T13:07:51;17.80;45.80
68766;DHT22;55756;45.582;11.484;2023-02-20T13:12:51;17.80;46.20
68766;DHT22;55756;45.582;11.484;2023-02-20T13:20:44;17.80;45.60
68766;DHT22;55756;45.582;11.484;2023-02-20T13:25:46;17.90;45.70
68766;DHT22;55756;45.582;11.484;2023-02-20T13:33:32;18.00;45.60
68766;DHT22;55756;45.582;11.484;2023-02-20T13:35:58;18.00;45.40
68766;DHT22;55756;45.582;11.484;2023-02-20T13:38:25;18.00;45.40
68766;DHT22;55756;45.582;11.484;2023-02-20T13:43:31;18.00;45.70
68766;DHT22;55756;45.582;11.484;2023-02-20T13:48:43;18.00;45.80
68766;DHT22;55756;45.582;11.484;2023-02-20T13:53:43;18.00;46.60
68766;DHT22;55756;45.582;11.484;2023-02-20T13:58:45;18.00;46.40
68766;DHT22;55756;45.582;11.484;2023-02-20T14:01:11;18.00;46.40
68766;DHT22;55756;45.582;11.484;2023-02-20T14:03:37;18.00;46.40
68766;DHT22;55756;45.582;11.484;2023-02-20T14:06:17;18.10;46.40
68766;DHT22;55756;45.582;11.484;2023-02-20T14:08:46;18.00;46.40
68766;DHT22;55756;45.582;11.484;2023-02-20T14:13:40;18.10;46.00
68766;DHT22;55756;45.582;11.484;2023-02-20T14:16:32;18.10;46.10
68766;DHT22;55756;45.582;11.484;2023-02-20T14:21:41;18.00;46.30
68766;DHT22;55756;45.582;11.484;2023-02-20T14:24:26;18.10;46.10
68766;DHT22;55756;45.582;11.484;2023-02-20T14:26:52;18.00;46.00
68766;DHT22;55756;45.582;11.484;2023-02-20T14:29:32;18.00;46.20
68766;DHT22;55756;45.582;11.484;2023-02-20T14:32:00;18.00;46.30
68766;DHT22;55756;45.582;11.484;2023-02-20T14:42:22;18.00;47.00
68766;DHT22;55756;45.582;11.484;2023-02-20T14:44:59;18.00;47.20
68766;DHT22;55756;45.582;11.484;2023-02-20T14:47:25;18.00;47.30
68766;DHT22;55756;45.582;11.484;2023-02-20T14:49:51;18.00;47.20
68766;DHT22;55756;45.582;11.484;2023-02-20T14:52:22;18.00;47.10
68766;DHT22;55756;45.582;11.484;2023-02-20T14:54:57;18.00;47.20
68766;DHT22;55756;45.582;11.484;2023-02-20T14:57:23;17.90;47.20
68766;DHT22;55756;45.582;11.484;2023-02-20T14:59:49;18.00;47.20
68766;DHT22;55756;45.582;11.484;2023-02-20T15:02:21;17.90;47.30
68766;DHT22;55756;45.582;11.484;2023-02-20T15:04:52;17.90;47.60
68766;DHT22;55756;45.582;11.484;2023-02-20T15:07:23;17.90;48.00
68766;DHT22;55756;45.582;11.484;2023-02-20T15:09:52;17.90;48.00
68766;DHT22;55756;45.582;11.484;2023-02-20T15:12:21;17.90;48.60
68766;DHT22;55756;45.582;11.484;2023-02-20T15:14:55;17.90;49.10
68766;DHT22;55756;45.582;11.484;2023-02-20T15:17:25;17.90;49.00
68766;DHT22;55756;45.582;11.484;2023-02-20T15:19:53;17.90;49.00
68766;DHT22;55756;45.582;11.484;2023-02-20T15:22:31;17.90;49.00
68766;DHT22;55756;45.582;11.484;2023-02-20T15:25:29;17.90;49.10
68766;DHT22;55756;45.582;11.484;2023-02-20T15:28:12;17.80;49.20
68766;DHT22;55756;45.582;11.484;2023-02-20T15:31:18;17.80;49.20
68766;DHT22;55756;45.582;11.484;2023-02-20T15:33:49;17.80;49.50
68766;DHT22;55756;45.582;11.484;2023-02-20T15:36:20;17.80;49.50
68766;DHT22;55756;45.582;11.484;2023-02-20T15:38:46;17.80;49.60
68766;DHT22;55756;45.582;11.484;2023-02-20T15:41:12;17.70;49.90
68766;DHT22;55756;45.582;11.484;2023-02-20T15:43:39;17.60;50.00
68766;DHT22;55756;45.582;11.484;2023-02-20T15:46:05;17.60;50.20
68766;DHT22;55756;45.582;11.484;2023-02-20T15:48:31;17.60;50.30
68766;DHT22;55756;45.582;11.484;2023-02-20T15:50:56;17.60;50.40
68766;DHT22;55756;45.582;11.484;2023-02-20T15:53:25;17.60;50.50
68766;DHT22;55756;45.582;11.484;2023-02-20T15:55:53;17.60;50.50
68766;DHT22;55756;45.582;11.484;2023-02-20T15:58:26;17.60;50.80
68766;DHT22;55756;45.582;11.484;2023-02-20T16:00:53;17.60;50.70
68766;DHT22;55756;45.582;11.484;2023-02-20T16:03:24;17.60;50.80
68766;DHT22;55756;45.582;11.484;2023-02-20T16:05:50;17.50;51.10
68766;DHT22;55756;45.582;11.484;2023-02-20T16:08:17;17.50;51.20
68766;DHT22;55756;45.582;11.484;2023-02-20T16:10:43;17.50;51.10
68766;DHT22;55756;45.582;11.484;2023-02-20T16:13:32;17.50;51.20
68766;DHT22;55756;45.582;11.484;2023-02-20T16:15:58;17.40;51.40
68766;DHT22;55756;45.582;11.484;2023-02-20T16:18:27;17.40;51.50
68766;DHT22;55756;45.582;11.484;2023-02-20T16:20:53;17.40;51.40
68766;DHT22;55756;45.582;11.484;2023-02-20T16:23:19;17.30;51.60
68766;DHT22;55756;45.582;11.484;2023-02-20T16:25:45;17.30;51.60
68766;DHT22;55756;45.582;11.484;2023-02-20T16:28:12;17.30;51.70
68766;DHT22;55756;45.582;11.484;2023-02-20T16:30:40;17.20;51.80
68766;DHT22;55756;45.582;11.484;2023-02-20T16:33:21;17.20;51.90
68766;DHT22;55756;45.582;11.484;2023-02-20T16:35:49;17.20;51.90
68766;DHT22;55756;45.582;11.484;2023-02-20T16:38:16;17.20;52.00
68766;DHT22;55756;45.582;11.484;2023-02-20T16:40:42;17.10;52.00
68766;DHT22;55756;45.582;11.484;2023-02-20T16:43:20;17.10;51.80
68766;DHT22;55756;45.582;11.484;2023-02-20T16:45:48;17.00;51.90
68766;DHT22;55756;45.582;11.484;2023-02-20T16:48:16;17.00;51.90
68766;DHT22;55756;45.582;11.484;2023-02-20T16:50:42;17.00;51.70
68766;DHT22;55756;45.582;11.484;2023-02-20T16:53:11;17.00;51.80
68766;DHT22;55756;45.582;11.484;2023-02-20T16:55:38;16.90;51.70
68766;DHT22;55756;45.582;11.484;2023-02-20T16:58:09;16.90;51.90
68766;DHT22;55756;45.582;11.484;2023-02-20T17:00:36;16.90;52.00
68766;DHT22;55756;45.582;11.484;2023-02-20T17:03:04;16.90;51.90
68766;DHT22;55756;45.582;11.484;2023-02-20T17:05:33;16.90;51.90
68766;DHT22;55756;45.582;11.484;2023-02-20T17:08:02;16.70;52.10
68766;DHT22;55756;45.582;11.484;2023-02-20T17:10:28;16.70;52.30
68766;DHT22;55756;45.582;11.484;2023-02-20T17:12:56;16.60;52.30
68766;DHT22;55756;45.582;11.484;2023-02-20T17:15:24;16.60;52.50
68766;DHT22;55756;45.582;11.484;2023-02-20T17:17:50;16.60;52.40
68766;DHT22;55756;45.582;11.484;2023-02-20T17:20:19;16.70;52.00
68766;DHT22;55756;45.582;11.484;2023-02-20T17:22:49;16.70;52.00
68766;DHT22;55756;45.582;11.484;2023-02-20T17:25:20;16.60;52.00
68766;DHT22;55756;45.582;11.484;2023-02-20T17:27:47;16.60;52.10
68766;DHT22;55756;45.582;11.484;2023-02-20T17:30:14;16.60;52.20
68766;DHT22;55756;45.582;11.484;2023-02-20T17:32:40;16.50;52.50
68766;DHT22;55756;45.582;11.484;2023-02-20T17:35:07;16.50;52.50
68766;DHT22;55756;45.582;11.484;2023-02-20T17:37:33;16.40;52.70
68766;DHT22;55756;45.582;11.484;2023-02-20T17:39:59;16.30;52.90
68766;DHT22;55756;45.582;11.484;2023-02-20T17:42:26;16.30;52.70
68766;DHT22;55756;45.582;11.484;2023-02-20T17:44:52;16.30;52.60
68766;DHT22;55756;45.582;11.484;2023-02-20T17:47:20;16.20;52.70
68766;DHT22;55756;45.582;11.484;2023-02-20T17:49:53;16.20;52.70
68766;DHT22;55756;45.582;11.484;2023-02-20T17:52:19;16.20;52.70
68766;DHT22;55756;45.582;11.484;2023-02-20T17:54:47;16.10;52.80
68766;DHT22;55756;45.582;11.484;2023-02-20T17:57:14;16.10;52.90
68766;DHT22;55756;45.582;11.484;2023-02-20T17:59:41;16.10;52.90
68766;DHT22;55756;45.582;11.484;2023-02-20T18:02:08;16.10;52.90
68766;DHT22;55756;45.582;11.484;2023-02-20T18:04:35;16.10;53.00
68766;DHT22;55756;45.582;11.484;2023-02-20T18:07:01;16.10;52.90